This is the latest recevied weather packets stored in our database for station/object KE2LU. If no packets are shown the sender has not sent any weather packets the latest 10 day(s).
| Time | Temp. | Humidity | Pressure | Rain* | Wind** | Luminosity | Snow |
|---|---|---|---|---|---|---|---|
| 1778052902 | 6.67° C | 98% | 1009.5 hPa | 2.79 mm | - | - | - |
| 1778050502 | 7.22° C | 97% | 1009.9 hPa | 3.3 mm | - | - | - |
| 1778049902 | 7.22° C | 97% | 1009.7 hPa | 3.3 mm | - | - | - |
| 1778049302 | 7.22° C | 97% | 1009.7 hPa | 3.05 mm | - | - | - |
| 1778043003 | 7.78° C | 97% | 1010.2 hPa | 1.52 mm | - | - | - |
| 1778041502 | 7.78° C | 97% | 1009.7 hPa | 1.27 mm | - | - | - |
| 1778037303 | 7.78° C | 96% | 1010.4 hPa | 0.51 mm | - | - | - |
| 1778037002 | 7.78° C | 96% | 1010.2 hPa | 0.51 mm | - | - | - |
| 1778036703 | 7.78° C | 96% | 1010.2 hPa | 0.51 mm | - | - | - |
| 1778032203 | 7.78° C | 95% | 1010.7 hPa | 0.51 mm | - | - | - |
| 1778030702 | 7.78° C | 94% | 1010.4 hPa | 0.51 mm | - | - | - |
| 1778026803 | 7.78° C | 93% | 1009.4 hPa | 0.76 mm | - | - | - |
| 1778026203 | 7.78° C | 93% | 1009.4 hPa | 1.02 mm | - | - | - |
| 1778024402 | 7.78° C | 92% | 1009.4 hPa | 1.52 mm | - | - | - |
| 1778020803 | 10.56° C | 77% | 1008.8 hPa | 0 mm | - | - | - |
| 1778018103 | 13.33° C | 71% | 1007.7 hPa | 0 mm | - | - | - |
| 1778017804 | 13.33° C | 71% | 1007.5 hPa | 0 mm | - | - | - |
| 1778016903 | 13.89° C | 69% | 1006.9 hPa | 0 mm | - | - | - |
| 1778016003 | 15° C | 68% | 1006.5 hPa | 0 mm | - | - | - |
| 1778015403 | 15.56° C | 65% | 1006.3 hPa | 0 mm | - | - | - |
| 1778012404 | 16.67° C | 69% | 1005.7 hPa | 0 mm | - | - | - |
| 1778010003 | 18.33° C | 66% | 1005.4 hPa | 0 mm | - | - | - |
| 1778007003 | 22.22° C | 58% | 1004.6 hPa | 0 mm | - | - | - |
| 1778004603 | 21.11° C | 59% | 1004.7 hPa | 0 mm | - | - | - |
| 1778001603 | 20.56° C | 63% | 1004.2 hPa | 0 mm | - | - | - |
* Rain latest hour (hover to see other rain measurements)
** Current wind speed in m/s (hover to see current wind gust speed)